sensor_id;sensor_type;location;lat;lon;timestamp;P1;durP1;ratioP1;P2;durP2;ratioP2
39308;SDS011;26019;47.510;19.122;2023-09-19T00:04:21;9.90;;;4.57;;
39308;SDS011;26019;47.510;19.122;2023-09-19T00:14:30;11.38;;;4.93;;
39308;SDS011;26019;47.510;19.122;2023-09-19T00:24:35;13.95;;;4.57;;
39308;SDS011;26019;47.510;19.122;2023-09-19T00:34:39;7.85;;;4.63;;
39308;SDS011;26019;47.510;19.122;2023-09-19T00:44:41;5.88;;;4.93;;
39308;SDS011;26019;47.510;19.122;2023-09-19T00:54:43;10.52;;;4.72;;
39308;SDS011;26019;47.510;19.122;2023-09-19T01:04:48;8.50;;;4.85;;
39308;SDS011;26019;47.510;19.122;2023-09-19T01:14:53;12.57;;;5.65;;
39308;SDS011;26019;47.510;19.122;2023-09-19T01:55:46;20.33;;;6.68;;
39308;SDS011;26019;47.510;19.122;2023-09-19T02:05:53;11.32;;;6.18;;
39308;SDS011;26019;47.510;19.122;2023-09-19T02:26:07;9.48;;;5.97;;
39308;SDS011;26019;47.510;19.122;2023-09-19T02:36:10;13.63;;;6.18;;
39308;SDS011;26019;47.510;19.122;2023-09-19T02:46:12;17.02;;;7.13;;
39308;SDS011;26019;47.510;19.122;2023-09-19T02:56:14;13.27;;;6.32;;
39308;SDS011;26019;47.510;19.122;2023-09-19T03:06:19;13.07;;;5.65;;
39308;SDS011;26019;47.510;19.122;2023-09-19T03:16:21;14.07;;;7.50;;
39308;SDS011;26019;47.510;19.122;2023-09-19T03:26:23;15.27;;;7.05;;
39308;SDS011;26019;47.510;19.122;2023-09-19T03:36:28;14.25;;;6.90;;
39308;SDS011;26019;47.510;19.122;2023-09-19T03:46:31;12.57;;;6.85;;
39308;SDS011;26019;47.510;19.122;2023-09-19T03:56:41;17.02;;;7.10;;
39308;SDS011;26019;47.510;19.122;2023-09-19T04:06:46;14.43;;;7.10;;
39308;SDS011;26019;47.510;19.122;2023-09-19T04:16:48;19.48;;;7.28;;
39308;SDS011;26019;47.510;19.122;2023-09-19T04:26:50;19.15;;;6.72;;
39308;SDS011;26019;47.510;19.122;2023-09-19T04:36:53;12.77;;;5.53;;
39308;SDS011;26019;47.510;19.122;2023-09-19T04:46:55;11.15;;;5.05;;
39308;SDS011;26019;47.510;19.122;2023-09-19T04:56:57;7.38;;;3.00;;
39308;SDS011;26019;47.510;19.122;2023-09-19T05:06:59;6.20;;;2.78;;
39308;SDS011;26019;47.510;19.122;2023-09-19T05:17:03;3.67;;;1.20;;
39308;SDS011;26019;47.510;19.122;2023-09-19T05:27:07;2.13;;;0.93;;
39308;SDS011;26019;47.510;19.122;2023-09-19T05:37:10;3.65;;;1.27;;
39308;SDS011;26019;47.510;19.122;2023-09-19T05:47:12;1.55;;;0.65;;
39308;SDS011;26019;47.510;19.122;2023-09-19T05:57:14;4.20;;;0.80;;
39308;SDS011;26019;47.510;19.122;2023-09-19T06:07:18;1.73;;;0.77;;
39308;SDS011;26019;47.510;19.122;2023-09-19T06:17:21;3.20;;;0.60;;
39308;SDS011;26019;47.510;19.122;2023-09-19T06:27:24;1.40;;;0.60;;
39308;SDS011;26019;47.510;19.122;2023-09-19T06:37:29;3.58;;;1.38;;
39308;SDS011;26019;47.510;19.122;2023-09-19T06:47:31;3.35;;;2.42;;
39308;SDS011;26019;47.510;19.122;2023-09-19T06:57:33;3.30;;;0.68;;
39308;SDS011;26019;47.510;19.122;2023-09-19T07:07:35;6.43;;;1.13;;
39308;SDS011;26019;47.510;19.122;2023-09-19T07:17:36;13.73;;;1.40;;
39308;SDS011;26019;47.510;19.122;2023-09-19T07:27:38;22.05;;;1.63;;
39308;SDS011;26019;47.510;19.122;2023-09-19T07:37:40;7.28;;;1.83;;
39308;SDS011;26019;47.510;19.122;2023-09-19T07:47:48;13.98;;;1.50;;
39308;SDS011;26019;47.510;19.122;2023-09-19T07:57:52;6.75;;;1.45;;
39308;SDS011;26019;47.510;19.122;2023-09-19T08:07:55;10.65;;;1.27;;
39308;SDS011;26019;47.510;19.122;2023-09-19T08:17:58;11.57;;;7.50;;
39308;SDS011;26019;47.510;19.122;2023-09-19T08:28:00;4.65;;;1.17;;
39308;SDS011;26019;47.510;19.122;2023-09-19T08:38:03;22.00;;;1.98;;
39308;SDS011;26019;47.510;19.122;2023-09-19T08:58:10;3.50;;;1.55;;
39308;SDS011;26019;47.510;19.122;2023-09-19T09:08:14;2.22;;;1.02;;
39308;SDS011;26019;47.510;19.122;2023-09-19T09:18:18;3.03;;;1.58;;
39308;SDS011;26019;47.510;19.122;2023-09-19T09:28:21;2.03;;;1.20;;
39308;SDS011;26019;47.510;19.122;2023-09-19T09:38:29;4.82;;;1.88;;
39308;SDS011;26019;47.510;19.122;2023-09-19T09:48:34;2.30;;;0.90;;
39308;SDS011;26019;47.510;19.122;2023-09-19T09:58:50;1.20;;;0.95;;
39308;SDS011;26019;47.510;19.122;2023-09-19T10:09:06;2.13;;;1.13;;
39308;SDS011;26019;47.510;19.122;2023-09-19T10:30:22;1.67;;;1.13;;
39308;SDS011;26019;47.510;19.122;2023-09-19T10:40:26;4.50;;;1.38;;
39308;SDS011;26019;47.510;19.122;2023-09-19T10:50:33;1.88;;;1.17;;
39308;SDS011;26019;47.510;19.122;2023-09-19T11:00:57;2.40;;;1.10;;
39308;SDS011;26019;47.510;19.122;2023-09-19T11:21:51;1.65;;;1.20;;
39308;SDS011;26019;47.510;19.122;2023-09-19T11:31:56;2.92;;;1.05;;
39308;SDS011;26019;47.510;19.122;2023-09-19T11:52:43;1.60;;;0.85;;
39308;SDS011;26019;47.510;19.122;2023-09-19T12:02:46;23.50;;;2.10;;
39308;SDS011;26019;47.510;19.122;2023-09-19T12:12:48;4.18;;;0.98;;
39308;SDS011;26019;47.510;19.122;2023-09-19T12:22:52;14.63;;;1.70;;
39308;SDS011;26019;47.510;19.122;2023-09-19T12:32:56;3.72;;;1.02;;
39308;SDS011;26019;47.510;19.122;2023-09-19T12:43:01;5.67;;;1.57;;
39308;SDS011;26019;47.510;19.122;2023-09-19T12:53:06;16.27;;;2.05;;
39308;SDS011;26019;47.510;19.122;2023-09-19T13:03:27;17.08;;;2.10;;
39308;SDS011;26019;47.510;19.122;2023-09-19T13:13:33;5.97;;;1.10;;
39308;SDS011;26019;47.510;19.122;2023-09-19T13:23:38;1.20;;;1.10;;
39308;SDS011;26019;47.510;19.122;2023-09-19T13:33:45;3.85;;;1.10;;
39308;SDS011;26019;47.510;19.122;2023-09-19T13:43:47;1.57;;;0.90;;
39308;SDS011;26019;47.510;19.122;2023-09-19T13:53:51;3.08;;;1.40;;
39308;SDS011;26019;47.510;19.122;2023-09-19T14:03:53;4.43;;;1.45;;
39308;SDS011;26019;47.510;19.122;2023-09-19T14:13:58;1.88;;;1.27;;
39308;SDS011;26019;47.510;19.122;2023-09-19T14:24:04;10.40;;;1.70;;
39308;SDS011;26019;47.510;19.122;2023-09-19T14:34:09;3.78;;;1.60;;
39308;SDS011;26019;47.510;19.122;2023-09-19T14:44:15;2.55;;;1.60;;
39308;SDS011;26019;47.510;19.122;2023-09-19T14:54:20;3.15;;;1.15;;
39308;SDS011;26019;47.510;19.122;2023-09-19T15:04:22;2.75;;;1.50;;
39308;SDS011;26019;47.510;19.122;2023-09-19T15:14:26;5.80;;;1.40;;
39308;SDS011;26019;47.510;19.122;2023-09-19T15:24:28;2.33;;;1.30;;
39308;SDS011;26019;47.510;19.122;2023-09-19T15:34:30;4.78;;;1.15;;
39308;SDS011;26019;47.510;19.122;2023-09-19T15:44:33;2.45;;;1.13;;
39308;SDS011;26019;47.510;19.122;2023-09-19T15:54:35;3.80;;;1.17;;
39308;SDS011;26019;47.510;19.122;2023-09-19T16:04:43;4.20;;;2.13;;
39308;SDS011;26019;47.510;19.122;2023-09-19T16:14:46;2.35;;;1.60;;
39308;SDS011;26019;47.510;19.122;2023-09-19T16:24:50;4.75;;;2.08;;
39308;SDS011;26019;47.510;19.122;2023-09-19T16:34:54;3.05;;;1.88;;
39308;SDS011;26019;47.510;19.122;2023-09-19T16:44:56;3.35;;;1.50;;
39308;SDS011;26019;47.510;19.122;2023-09-19T16:54:58;2.55;;;1.98;;
39308;SDS011;26019;47.510;19.122;2023-09-19T17:05:02;5.32;;;1.42;;
39308;SDS011;26019;47.510;19.122;2023-09-19T17:15:05;5.15;;;2.20;;
39308;SDS011;26019;47.510;19.122;2023-09-19T17:25:10;5.43;;;1.33;;
39308;SDS011;26019;47.510;19.122;2023-09-19T17:35:15;4.32;;;2.05;;
39308;SDS011;26019;47.510;19.122;2023-09-19T17:55:27;4.85;;;2.28;;
39308;SDS011;26019;47.510;19.122;2023-09-19T18:05:30;8.90;;;6.60;;
39308;SDS011;26019;47.510;19.122;2023-09-19T18:15:35;3.92;;;2.50;;
39308;SDS011;26019;47.510;19.122;2023-09-19T18:25:43;5.22;;;2.45;;
39308;SDS011;26019;47.510;19.122;2023-09-19T18:35:47;4.68;;;2.88;;
39308;SDS011;26019;47.510;19.122;2023-09-19T18:45:56;6.55;;;3.10;;
39308;SDS011;26019;47.510;19.122;2023-09-19T18:56:03;10.98;;;3.20;;
39308;SDS011;26019;47.510;19.122;2023-09-19T19:06:11;5.13;;;2.42;;
39308;SDS011;26019;47.510;19.122;2023-09-19T19:16:27;3.05;;;2.10;;
39308;SDS011;26019;47.510;19.122;2023-09-19T19:26:32;7.18;;;3.08;;
39308;SDS011;26019;47.510;19.122;2023-09-19T19:36:36;4.18;;;2.15;;
39308;SDS011;26019;47.510;19.122;2023-09-19T19:46:43;5.47;;;3.10;;
39308;SDS011;26019;47.510;19.122;2023-09-19T19:56:46;5.32;;;3.13;;
39308;SDS011;26019;47.510;19.122;2023-09-19T20:06:50;3.63;;;2.53;;
39308;SDS011;26019;47.510;19.122;2023-09-19T20:16:55;7.25;;;3.00;;
39308;SDS011;26019;47.510;19.122;2023-09-19T20:27:03;8.07;;;3.38;;
39308;SDS011;26019;47.510;19.122;2023-09-19T20:37:07;4.47;;;2.58;;
39308;SDS011;26019;47.510;19.122;2023-09-19T20:47:09;6.22;;;3.00;;
39308;SDS011;26019;47.510;19.122;2023-09-19T20:57:13;5.72;;;3.00;;
39308;SDS011;26019;47.510;19.122;2023-09-19T21:07:16;5.55;;;3.40;;
39308;SDS011;26019;47.510;19.122;2023-09-19T21:27:24;7.28;;;3.78;;
39308;SDS011;26019;47.510;19.122;2023-09-19T21:37:26;9.50;;;4.10;;
39308;SDS011;26019;47.510;19.122;2023-09-19T21:47:28;8.15;;;4.22;;
39308;SDS011;26019;47.510;19.122;2023-09-19T21:57:30;8.30;;;4.63;;
39308;SDS011;26019;47.510;19.122;2023-09-19T22:07:32;6.57;;;3.90;;
39308;SDS011;26019;47.510;19.122;2023-09-19T22:17:34;10.40;;;3.95;;
39308;SDS011;26019;47.510;19.122;2023-09-19T22:27:36;10.20;;;5.75;;
39308;SDS011;26019;47.510;19.122;2023-09-19T22:37:37;11.57;;;6.13;;
39308;SDS011;26019;47.510;19.122;2023-09-19T22:47:39;5.90;;;4.00;;
39308;SDS011;26019;47.510;19.122;2023-09-19T22:57:42;7.53;;;3.90;;
39308;SDS011;26019;47.510;19.122;2023-09-19T23:07:44;6.13;;;4.30;;
39308;SDS011;26019;47.510;19.122;2023-09-19T23:17:59;7.93;;;4.18;;
39308;SDS011;26019;47.510;19.122;2023-09-19T23:28:01;6.03;;;4.50;;
39308;SDS011;26019;47.510;19.122;2023-09-19T23:38:05;5.90;;;3.55;;
39308;SDS011;26019;47.510;19.122;2023-09-19T23:48:08;7.20;;;4.47;;
39308;SDS011;26019;47.510;19.122;2023-09-19T23:58:12;6.13;;;3.85;;
